| time (UTC) | temp C | wind direction | speed KPH | gust KPH | rain 1hr cm | rain 24hr cm | rain mn cm | humidity % | barometer mb |
| 20260906104829 | 14 | 23 | 0.0 | 0.0 | 0.00 | 0.43 | 0.00 | 91 | 1015.8 |
| 20260906103331 | 14 | 352 | 0.0 | 0.0 | 0.00 | 0.43 | 0.00 | 91 | 1015.5 |
| 20260906101816 | 14 | 350 | 0.0 | 0.0 | 0.00 | 0.43 | 0.00 | 91 | 1015.8 |
| 20260906100325 | 14 | 24 | 0.0 | 0.0 | 0.00 | 0.43 | 0.00 | 90 | 1015.7 |
| 20260906094832 | 14 | 60 | 0.0 | 0.0 | 0.00 | 0.43 | 0.00 | 91 | 1015.4 |
| 20260906093333 | 14 | 38 | 0.0 | 0.0 | 0.00 | 0.43 | 0.00 | 91 | 1015.4 |
| 20260906091827 | 14 | 15 | 0.0 | 0.0 | 0.00 | 0.43 | 0.00 | 91 | 1015.4 |
| 20260906090324 | 14 | 15 | 0.0 | 0.0 | 0.00 | 0.43 | 0.00 | 90 | 1015.5 |
| 20260906084830 | 15 | 33 | 0.0 | 0.0 | 0.00 | 0.43 | 0.00 | 90 | 1015.4 |
| 20260906083325 | 15 | 69 | 0.0 | 0.0 | 0.00 | 0.43 | 0.00 | 88 | 1015.0 |
| 20260906081840 | 15 | 69 | 0.0 | 0.0 | 0.00 | 0.43 | 0.00 | 88 | 1014.8 |
| 20260906080316 | 16 | 69 | 0.0 | 0.0 | 0.00 | 0.43 | 0.00 | 86 | 1014.8 |
| 20260906074847 | 16 | 69 | 0.0 | 0.0 | 0.00 | 0.43 | 0.00 | 85 | 1014.6 |
| 20260906073322 | 16 | 73 | 0.0 | 0.0 | 0.00 | 0.43 | 0.00 | 85 | 1014.6 |
| 20260906071816 | 16 | 90 | 0.0 | 1.6 | 0.00 | 0.43 | 0.00 | 85 | 1014.5 |
| 20260906070317 | 16 | 100 | 0.0 | 3.2 | 0.00 | 0.43 | 0.00 | 83 | 1014.6 |
| 20260906064818 | 17 | 73 | 0.0 | 1.6 | 0.00 | 0.43 | 0.00 | 83 | 1014.8 |
| 20260906063352 | 17 | 69 | 1.6 | 4.8 | 0.00 | 0.43 | 0.00 | 82 | 1014.6 |
| 20260906061835 | 17 | 69 | 1.6 | 4.8 | 0.00 | 0.43 | 0.00 | 81 | 1014.7 |
| 20260906060317 | 18 | 86 | 3.2 | 8.0 | 0.00 | 0.43 | 0.00 | 81 | 1014.6 |
| 20260906054818 | 18 | 72 | 4.8 | 9.7 | 0.00 | 0.43 | 0.00 | 81 | 1014.6 |
| 20260906053318 | 18 | 82 | 4.8 | 9.7 | 0.00 | 0.43 | 0.00 | 81 | 1014.5 |
| 20260906051831 | 18 | 99 | 1.6 | 3.2 | 0.00 | 0.43 | 0.00 | 82 | 1014.5 |
| 20260906050328 | 18 | 82 | 1.6 | 4.8 | 0.00 | 0.43 | 0.00 | 80 | 1014.4 |
| 20260906044841 | 19 | 94 | 3.2 | 8.0 | 0.00 | 0.43 | 0.00 | 80 | 1014.3 |
| 20260906043337 | 19 | 75 | 4.8 | 8.0 | 0.00 | 0.43 | 0.00 | 80 | 1014.2 |
| 20260906041827 | 19 | 99 | 4.8 | 9.7 | 0.00 | 0.43 | 0.00 | 82 | 1014.0 |
| 20260906034830 | 20 | 84 | 3.2 | 6.4 | 0.00 | 0.43 | 0.43 | 83 | 1013.8 |
| 20260906033324 | 20 | 104 | 1.6 | 4.8 | 0.00 | 0.43 | 0.43 | 83 | 1013.6 |
| 20260906031839 | 20 | 98 | 0.0 | 0.0 | 0.00 | 0.43 | 0.43 | 84 | 1013.7 |
| 20260906030330 | 21 | 117 | 0.0 | 1.6 | 0.00 | 0.43 | 0.43 | 85 | 1013.5 |
| 20260906024832 | 21 | 86 | 0.0 | 6.4 | 0.00 | 0.43 | 0.43 | 86 | 1013.5 |
| 20260906023331 | 20 | 334 | 0.0 | 0.0 | 0.00 | 0.43 | 0.43 | 93 | 1013.3 |
| 20260906021844 | 21 | 333 | 0.0 | 1.6 | 0.00 | 0.43 | 0.43 | 93 | 1013.2 |
| 20260906020345 | 21 | 301 | 0.0 | 0.0 | 0.00 | 0.43 | 0.43 | 92 | 1013.0 |
| 20260906014825 | 21 | 302 | 0.0 | 0.0 | 0.00 | 0.43 | 0.43 | 92 | 1012.8 |
| 20260906013323 | 21 | 302 | 0.0 | 0.0 | 0.00 | 0.43 | 0.43 | 92 | 1013.0 |
| 20260906011855 | 21 | 315 | 0.0 | 0.0 | 0.00 | 0.43 | 0.43 | 92 | 1012.7 |
| 20260906010335 | 21 | 315 | 0.0 | 1.6 | 0.00 | 0.43 | 0.43 | 91 | 1012.5 |
| 20260906004843 | 21 | 276 | 0.0 | 3.2 | 0.00 | 0.43 | 0.43 | 91 | 1012.4 |
| 20260906003340 | 21 | 286 | 0.0 | 4.8 | 0.00 | 0.43 | 0.43 | 90 | 1012.4 |
| 20260906001836 | 22 | 330 | 0.0 | 3.2 | 0.00 | 0.43 | 0.43 | 88 | 1012.3 |
| 20260906000328 | 22 | 344 | 3.2 | 9.7 | 0.00 | 0.43 | 0.43 | 87 | 1012.2 |
| 20260905234837 | 23 | 5 | 0.0 | 1.6 | 0.00 | 0.43 | 0.43 | 82 | 1012.5 |
| 20260905233347 | 24 | 43 | 0.0 | 3.2 | 0.00 | 0.43 | 0.43 | 80 | 1012.4 |
| 20260905231857 | 24 | 88 | 0.0 | 4.8 | 0.00 | 0.43 | 0.43 | 78 | 1012.2 |
| 20260905230336 | 25 | 53 | 3.2 | 6.4 | 0.00 | 0.43 | 0.43 | 78 | 1012.2 |
| 20260905223334 | 24 | 70 | 8.0 | 12.9 | 0.00 | 0.43 | 0.43 | 78 | 1012.3 |
| 20260905221828 | 24 | 57 | 4.8 | 14.5 | 0.00 | 0.43 | 0.43 | 79 | 1012.2 |
| 20260905220325 | 24 | 72 | 8.0 | 12.9 | 0.00 | 0.43 | 0.43 | 80 | 1012.0 |
| 20260905214828 | 23 | 81 | 9.7 | 17.7 | 0.00 | 0.43 | 0.43 | 81 | 1011.8 |
| 20260905213345 | 23 | 89 | 8.0 | 17.7 | 0.00 | 0.43 | 0.43 | 83 | 1011.9 |
| 20260905211828 | 23 | 259 | 4.8 | 12.9 | 0.00 | 0.43 | 0.43 | 85 | 1011.8 |
| 20260905210349 | 23 | 79 | 6.4 | 14.5 | 0.00 | 0.43 | 0.43 | 84 | 1011.8 |
| 20260905204826 | 22 | 25 | 8.0 | 16.1 | 0.00 | 0.43 | 0.43 | 87 | 1011.8 |
| 20260905203347 | 22 | 84 | 4.8 | 11.3 | 0.03 | 0.43 | 0.43 | 92 | 1012.0 |
| 20260905201832 | 21 | 96 | 4.8 | 8.0 | 0.20 | 0.43 | 0.43 | 93 | 1012.1 |
| 20260905200331 | 21 | 72 | 6.4 | 9.7 | 0.30 | 0.43 | 0.43 | 94 | 1012.2 |
| 20260905194837 | 20 | 93 | 6.4 | 11.3 | 0.38 | 0.43 | 0.43 | 94 | 1012.2 |
| 20260905193332 | 20 | 26 | 4.8 | 14.5 | 0.38 | 0.38 | 0.38 | 94 | 1012.3 |
| 20260905191825 | 20 | 83 | 1.6 | 9.7 | 0.23 | 0.23 | 0.23 | 94 | 1012.3 |
| 20260905190342 | 20 | 79 | 4.8 | 12.9 | 0.13 | 0.13 | 0.13 | 94 | 1012.4 |
| 20260905184849 | 20 | 89 | 4.8 | 14.5 | 0.05 | 0.05 | 0.05 | 94 | 1012.5 |
| 20260905183323 | 20 | 75 | 6.4 | 14.5 | 0.00 | 0.00 | 0.00 | 92 | 1012.4 |
| 20260905181838 | 21 | 39 | 8.0 | 16.1 | 0.00 | 0.00 | 0.00 | 89 | 1012.5 |
| 20260905180335 | 21 | 83 | 6.4 | 11.3 | 0.00 | 0.00 | 0.00 | 88 | 1012.4 |
| 20260905174835 | 21 | 68 | 6.4 | 12.9 | 0.00 | 0.00 | 0.00 | 88 | 1012.4 |
| 20260905173333 | 21 | 75 | 9.7 | 12.9 | 0.00 | 0.00 | 0.00 | 87 | 1012.4 |
| 20260905171827 | 22 | 90 | 9.7 | 17.7 | 0.00 | 0.00 | 0.00 | 85 | 1012.3 |
| 20260905170327 | 22 | 101 | 4.8 | 14.5 | 0.00 | 0.00 | 0.00 | 85 | 1012.3 |
| 20260905164828 | 22 | 56 | 9.7 | 20.9 | 0.00 | 0.03 | 0.00 | 85 | 1012.2 |
| 20260905163348 | 22 | 74 | 6.4 | 17.7 | 0.00 | 0.03 | 0.00 | 86 | 1012.1 |
| 20260905161832 | 22 | 103 | 12.9 | 16.1 | 0.00 | 0.03 | 0.00 | 86 | 1012.1 |
| 20260905160333 | 22 | 41 | 9.7 | 14.5 | 0.00 | 0.03 | 0.00 | 85 | 1012.1 |
| 20260905154835 | 22 | 72 | 6.4 | 17.7 | 0.00 | 0.15 | 0.00 | 86 | 1012.1 |
| 20260905153331 | 21 | 91 | 11.3 | 16.1 | 0.00 | 0.15 | 0.00 | 86 | 1012.0 |
| 20260905151837 | 21 | 56 | 9.7 | 17.7 | 0.00 | 0.15 | 0.00 | 88 | 1011.8 |
| 20260905150354 | 21 | 72 | 8.0 | 14.5 | 0.00 | 0.15 | 0.00 | 88 | 1011.9 |
| 20260905144845 | 21 | 89 | 4.8 | 8.0 | 0.00 | 0.23 | 0.00 | 89 | 1011.9 |
| 20260905143341 | 21 | 108 | 12.9 | 17.7 | 0.00 | 0.23 | 0.00 | 89 | 1011.8 |
| 20260905141856 | 21 | 56 | 9.7 | 14.5 | 0.00 | 0.23 | 0.00 | 89 | 1011.7 |
| 20260905140329 | 21 | 294 | 6.4 | 14.5 | 0.00 | 0.23 | 0.00 | 90 | 1011.7 |
| 20260905134836 | 21 | 80 | 8.0 | 16.1 | 0.00 | 1.22 | 0.00 | 92 | 1011.4 |
| 20260905133324 | 21 | 101 | 9.7 | 16.1 | 0.00 | 1.22 | 0.00 | 93 | 1011.3 |
| 20260905131839 | 21 | 72 | 8.0 | 16.1 | 0.00 | 1.22 | 0.00 | 93 | 1011.5 |
| 20260905130336 | 21 | 77 | 8.0 | 16.1 | 0.00 | 1.22 | 0.00 | 93 | 1011.3 |
| 20260905124847 | 21 | 63 | 9.7 | 17.7 | 0.00 | 2.29 | 0.00 | 94 | 1011.2 |
| 20260905123324 | 21 | 101 | 11.3 | 24.1 | 0.00 | 2.29 | 0.00 | 94 | 1010.9 |
| 20260905121837 | 21 | 53 | 11.3 | 17.7 | 0.00 | 2.29 | 0.00 | 94 | 1010.7 |
| 20260905120337 | 21 | 86 | 11.3 | 17.7 | 0.00 | 2.29 | 0.00 | 94 | 1010.7 |
| 20260905114839 | 21 | 97 | 8.0 | 11.3 | 0.00 | 2.92 | 0.00 | 94 | 1010.7 |
| 20260905113340 | 21 | 94 | 6.4 | 11.3 | 0.00 | 2.92 | 0.00 | 94 | 1010.6 |
| 20260905111831 | 21 | 96 | 6.4 | 12.9 | 0.00 | 2.92 | 0.00 | 94 | 1010.2 |
| 20260905110331 | 21 | 96 | 6.4 | 16.1 | 0.00 | 2.92 | 0.00 | 94 | 1010.2 |